sensor_id;sensor_type;location;lat;lon;timestamp;P1;durP1;ratioP1;P2;durP2;ratioP2
12976;SDS011;6553;48.412;9.514;2022-11-15T00:01:26;3.15;;;2.65;;
12976;SDS011;6553;48.412;9.514;2022-11-15T00:04:10;3.42;;;3.13;;
12976;SDS011;6553;48.412;9.514;2022-11-15T00:06:54;2.75;;;2.55;;
12976;SDS011;6553;48.412;9.514;2022-11-15T00:09:39;2.47;;;2.28;;
12976;SDS011;6553;48.412;9.514;2022-11-15T00:12:22;3.10;;;2.80;;
12976;SDS011;6553;48.412;9.514;2022-11-15T00:15:07;3.85;;;2.83;;
12976;SDS011;6553;48.412;9.514;2022-11-15T00:17:51;3.30;;;2.83;;
12976;SDS011;6553;48.412;9.514;2022-11-15T00:20:36;2.60;;;2.40;;
12976;SDS011;6553;48.412;9.514;2022-11-15T00:23:20;2.95;;;2.65;;
12976;SDS011;6553;48.412;9.514;2022-11-15T00:26:04;3.30;;;2.80;;
12976;SDS011;6553;48.412;9.514;2022-11-15T00:28:51;3.10;;;2.70;;
12976;SDS011;6553;48.412;9.514;2022-11-15T00:31:36;3.33;;;2.47;;
12976;SDS011;6553;48.412;9.514;2022-11-15T00:34:20;3.47;;;2.70;;
12976;SDS011;6553;48.412;9.514;2022-11-15T00:37:05;2.88;;;2.35;;
12976;SDS011;6553;48.412;9.514;2022-11-15T00:39:50;2.22;;;2.03;;
12976;SDS011;6553;48.412;9.514;2022-11-15T00:42:35;2.53;;;2.33;;
12976;SDS011;6553;48.412;9.514;2022-11-15T00:45:19;2.63;;;2.42;;
12976;SDS011;6553;48.412;9.514;2022-11-15T00:48:03;2.65;;;2.45;;
12976;SDS011;6553;48.412;9.514;2022-11-15T00:50:48;2.97;;;2.28;;
12976;SDS011;6553;48.412;9.514;2022-11-15T00:53:33;2.72;;;2.20;;
12976;SDS011;6553;48.412;9.514;2022-11-15T00:56:17;2.88;;;2.67;;
12976;SDS011;6553;48.412;9.514;2022-11-15T00:59:01;2.75;;;2.55;;
12976;SDS011;6553;48.412;9.514;2022-11-15T01:01:45;3.08;;;2.47;;
12976;SDS011;6553;48.412;9.514;2022-11-15T01:04:29;2.45;;;2.25;;
12976;SDS011;6553;48.412;9.514;2022-11-15T01:07:13;3.92;;;2.30;;
12976;SDS011;6553;48.412;9.514;2022-11-15T01:09:58;2.85;;;2.30;;
12976;SDS011;6553;48.412;9.514;2022-11-15T01:12:42;3.00;;;2.70;;
12976;SDS011;6553;48.412;9.514;2022-11-15T01:15:26;3.17;;;2.30;;
12976;SDS011;6553;48.412;9.514;2022-11-15T01:18:10;2.13;;;2.03;;
12976;SDS011;6553;48.412;9.514;2022-11-15T01:20:55;2.47;;;2.20;;
12976;SDS011;6553;48.412;9.514;2022-11-15T01:23:39;2.65;;;2.25;;
12976;SDS011;6553;48.412;9.514;2022-11-15T01:26:24;2.70;;;2.42;;
12976;SDS011;6553;48.412;9.514;2022-11-15T01:29:09;2.10;;;1.90;;
12976;SDS011;6553;48.412;9.514;2022-11-15T01:31:53;2.58;;;2.10;;
12976;SDS011;6553;48.412;9.514;2022-11-15T01:34:37;1.98;;;1.75;;
12976;SDS011;6553;48.412;9.514;2022-11-15T01:37:22;2.30;;;2.10;;
12976;SDS011;6553;48.412;9.514;2022-11-15T01:40:06;2.58;;;2.20;;
12976;SDS011;6553;48.412;9.514;2022-11-15T01:42:51;2.97;;;2.50;;
12976;SDS011;6553;48.412;9.514;2022-11-15T01:45:36;2.17;;;1.98;;
12976;SDS011;6553;48.412;9.514;2022-11-15T01:48:20;2.63;;;2.38;;
12976;SDS011;6553;48.412;9.514;2022-11-15T01:51:11;3.17;;;2.03;;
12976;SDS011;6553;48.412;9.514;2022-11-15T01:54:02;2.70;;;1.90;;
12976;SDS011;6553;48.412;9.514;2022-11-15T01:56:59;1.92;;;1.63;;
12976;SDS011;6553;48.412;9.514;2022-11-15T01:59:50;1.85;;;1.70;;
12976;SDS011;6553;48.412;9.514;2022-11-15T02:02:34;2.95;;;1.90;;
12976;SDS011;6553;48.412;9.514;2022-11-15T02:05:21;2.30;;;1.88;;
12976;SDS011;6553;48.412;9.514;2022-11-15T02:08:05;2.03;;;1.83;;
12976;SDS011;6553;48.412;9.514;2022-11-15T02:10:50;1.85;;;1.70;;
12976;SDS011;6553;48.412;9.514;2022-11-15T02:13:35;2.10;;;1.92;;
12976;SDS011;6553;48.412;9.514;2022-11-15T02:29:00;2.85;;;1.98;;
12976;SDS011;6553;48.412;9.514;2022-11-15T02:35:02;1.70;;;1.60;;
12976;SDS011;6553;48.412;9.514;2022-11-15T02:38:18;2.08;;;1.70;;
12976;SDS011;6553;48.412;9.514;2022-11-15T02:41:17;1.90;;;1.80;;
12976;SDS011;6553;48.412;9.514;2022-11-15T02:44:22;2.25;;;1.92;;
12976;SDS011;6553;48.412;9.514;2022-11-15T02:47:18;2.33;;;1.90;;
12976;SDS011;6553;48.412;9.514;2022-11-15T02:50:10;1.77;;;1.55;;
12976;SDS011;6553;48.412;9.514;2022-11-15T02:52:59;2.03;;;1.83;;
12976;SDS011;6553;48.412;9.514;2022-11-15T02:55:45;2.17;;;1.80;;
12976;SDS011;6553;48.412;9.514;2022-11-15T02:58:42;3.05;;;1.77;;
12976;SDS011;6553;48.412;9.514;2022-11-15T03:11:37;2.00;;;1.80;;
12976;SDS011;6553;48.412;9.514;2022-11-15T03:15:01;1.70;;;1.60;;
12976;SDS011;6553;48.412;9.514;2022-11-15T03:18:13;1.80;;;1.70;;
12976;SDS011;6553;48.412;9.514;2022-11-15T03:21:05;1.67;;;1.58;;
12976;SDS011;6553;48.412;9.514;2022-11-15T03:23:53;1.77;;;1.67;;
12976;SDS011;6553;48.412;9.514;2022-11-15T03:26:42;1.80;;;1.58;;
12976;SDS011;6553;48.412;9.514;2022-11-15T03:29:33;1.73;;;1.63;;
12976;SDS011;6553;48.412;9.514;2022-11-15T03:32:28;1.85;;;1.73;;
12976;SDS011;6553;48.412;9.514;2022-11-15T03:35:18;1.70;;;1.60;;
12976;SDS011;6553;48.412;9.514;2022-11-15T03:38:17;1.77;;;1.60;;
12976;SDS011;6553;48.412;9.514;2022-11-15T03:41:17;2.10;;;1.40;;
12976;SDS011;6553;48.412;9.514;2022-11-15T03:47:27;1.60;;;1.50;;
12976;SDS011;6553;48.412;9.514;2022-11-15T03:50:18;1.48;;;1.38;;
12976;SDS011;6553;48.412;9.514;2022-11-15T03:53:05;1.40;;;1.30;;
12976;SDS011;6553;48.412;9.514;2022-11-15T03:55:51;2.25;;;1.52;;
12976;SDS011;6553;48.412;9.514;2022-11-15T03:58:35;2.03;;;1.60;;
12976;SDS011;6553;48.412;9.514;2022-11-15T04:01:20;1.63;;;1.52;;
12976;SDS011;6553;48.412;9.514;2022-11-15T04:04:03;2.30;;;1.70;;
12976;SDS011;6553;48.412;9.514;2022-11-15T04:06:48;1.67;;;1.58;;
12976;SDS011;6553;48.412;9.514;2022-11-15T04:09:32;1.60;;;1.50;;
12976;SDS011;6553;48.412;9.514;2022-11-15T04:12:16;1.50;;;1.40;;
12976;SDS011;6553;48.412;9.514;2022-11-15T04:15:19;1.60;;;1.50;;
12976;SDS011;6553;48.412;9.514;2022-11-15T04:18:05;1.70;;;1.60;;
12976;SDS011;6553;48.412;9.514;2022-11-15T04:20:50;2.08;;;1.67;;
12976;SDS011;6553;48.412;9.514;2022-11-15T04:23:53;1.77;;;1.40;;
12976;SDS011;6553;48.412;9.514;2022-11-15T04:26:55;1.75;;;1.52;;
12976;SDS011;6553;48.412;9.514;2022-11-15T04:29:40;1.60;;;1.50;;
12976;SDS011;6553;48.412;9.514;2022-11-15T04:32:24;1.90;;;1.50;;
12976;SDS011;6553;48.412;9.514;2022-11-15T04:35:08;1.50;;;1.40;;
12976;SDS011;6553;48.412;9.514;2022-11-15T04:37:52;1.58;;;1.40;;
12976;SDS011;6553;48.412;9.514;2022-11-15T04:40:37;1.50;;;1.40;;
12976;SDS011;6553;48.412;9.514;2022-11-15T04:43:22;1.77;;;1.65;;
12976;SDS011;6553;48.412;9.514;2022-11-15T04:46:07;1.90;;;1.70;;
12976;SDS011;6553;48.412;9.514;2022-11-15T04:48:51;1.90;;;1.55;;
12976;SDS011;6553;48.412;9.514;2022-11-15T04:51:37;1.60;;;1.50;;
12976;SDS011;6553;48.412;9.514;2022-11-15T04:54:21;1.50;;;1.40;;
12976;SDS011;6553;48.412;9.514;2022-11-15T04:57:06;2.15;;;1.85;;
12976;SDS011;6553;48.412;9.514;2022-11-15T04:59:50;1.70;;;1.60;;
12976;SDS011;6553;48.412;9.514;2022-11-15T05:02:34;2.30;;;2.10;;
12976;SDS011;6553;48.412;9.514;2022-11-15T05:05:37;1.40;;;1.30;;
12976;SDS011;6553;48.412;9.514;2022-11-15T05:08:21;1.92;;;1.77;;
12976;SDS011;6553;48.412;9.514;2022-11-15T05:11:05;1.85;;;1.70;;
12976;SDS011;6553;48.412;9.514;2022-11-15T05:13:49;1.65;;;1.55;;
12976;SDS011;6553;48.412;9.514;2022-11-15T05:16:34;1.98;;;1.70;;
12976;SDS011;6553;48.412;9.514;2022-11-15T05:19:18;2.17;;;1.70;;
12976;SDS011;6553;48.412;9.514;2022-11-15T05:22:02;1.60;;;1.50;;
12976;SDS011;6553;48.412;9.514;2022-11-15T05:24:46;2.10;;;1.70;;
12976;SDS011;6553;48.412;9.514;2022-11-15T05:27:32;1.80;;;1.65;;
12976;SDS011;6553;48.412;9.514;2022-11-15T05:30:17;2.67;;;1.80;;
12976;SDS011;6553;48.412;9.514;2022-11-15T05:33:01;1.60;;;1.50;;
12976;SDS011;6553;48.412;9.514;2022-11-15T05:35:46;1.70;;;1.55;;
12976;SDS011;6553;48.412;9.514;2022-11-15T05:38:38;2.55;;;2.13;;
12976;SDS011;6553;48.412;9.514;2022-11-15T05:41:32;2.28;;;2.08;;
12976;SDS011;6553;48.412;9.514;2022-11-15T05:44:22;2.63;;;2.35;;
12976;SDS011;6553;48.412;9.514;2022-11-15T05:47:11;2.55;;;2.00;;
12976;SDS011;6553;48.412;9.514;2022-11-15T05:50:00;2.85;;;2.55;;
12976;SDS011;6553;48.412;9.514;2022-11-15T05:52:46;2.38;;;1.75;;
12976;SDS011;6553;48.412;9.514;2022-11-15T05:55:31;2.33;;;2.13;;
12976;SDS011;6553;48.412;9.514;2022-11-15T05:58:16;2.92;;;2.20;;
12976;SDS011;6553;48.412;9.514;2022-11-15T06:01:03;2.78;;;2.33;;
12976;SDS011;6553;48.412;9.514;2022-11-15T06:03:48;3.35;;;2.28;;
12976;SDS011;6553;48.412;9.514;2022-11-15T06:06:32;2.65;;;2.17;;
12976;SDS011;6553;48.412;9.514;2022-11-15T06:09:16;2.33;;;2.13;;
12976;SDS011;6553;48.412;9.514;2022-11-15T06:12:00;2.15;;;1.95;;
12976;SDS011;6553;48.412;9.514;2022-11-15T06:14:44;2.20;;;2.00;;
12976;SDS011;6553;48.412;9.514;2022-11-15T06:17:28;2.25;;;2.05;;
12976;SDS011;6553;48.412;9.514;2022-11-15T06:20:12;2.13;;;1.92;;
12976;SDS011;6553;48.412;9.514;2022-11-15T06:22:57;2.30;;;2.10;;
12976;SDS011;6553;48.412;9.514;2022-11-15T06:25:43;2.50;;;2.30;;
12976;SDS011;6553;48.412;9.514;2022-11-15T06:28:28;2.40;;;2.17;;
12976;SDS011;6553;48.412;9.514;2022-11-15T06:31:14;2.30;;;2.10;;
12976;SDS011;6553;48.412;9.514;2022-11-15T06:33:58;3.00;;;2.38;;
12976;SDS011;6553;48.412;9.514;2022-11-15T06:36:42;3.75;;;2.20;;
12976;SDS011;6553;48.412;9.514;2022-11-15T06:39:26;2.00;;;1.80;;
12976;SDS011;6553;48.412;9.514;2022-11-15T06:42:10;2.20;;;2.00;;
12976;SDS011;6553;48.412;9.514;2022-11-15T06:44:54;3.17;;;2.80;;
12976;SDS011;6553;48.412;9.514;2022-11-15T06:47:45;2.35;;;2.15;;
12976;SDS011;6553;48.412;9.514;2022-11-15T06:50:30;3.08;;;2.30;;
12976;SDS011;6553;48.412;9.514;2022-11-15T06:53:14;2.88;;;2.42;;
12976;SDS011;6553;48.412;9.514;2022-11-15T06:55:59;2.22;;;2.03;;
12976;SDS011;6553;48.412;9.514;2022-11-15T06:58:45;2.45;;;2.25;;
12976;SDS011;6553;48.412;9.514;2022-11-15T07:01:29;2.45;;;2.17;;
12976;SDS011;6553;48.412;9.514;2022-11-15T07:04:13;2.80;;;2.35;;
12976;SDS011;6553;48.412;9.514;2022-11-15T07:06:57;2.83;;;2.10;;
12976;SDS011;6553;48.412;9.514;2022-11-15T07:09:41;3.10;;;2.10;;
12976;SDS011;6553;48.412;9.514;2022-11-15T07:12:25;2.90;;;2.40;;
12976;SDS011;6553;48.412;9.514;2022-11-15T07:15:09;2.75;;;2.50;;
12976;SDS011;6553;48.412;9.514;2022-11-15T07:17:54;2.50;;;2.30;;
12976;SDS011;6553;48.412;9.514;2022-11-15T07:20:38;2.90;;;2.22;;
12976;SDS011;6553;48.412;9.514;2022-11-15T07:23:23;2.20;;;2.00;;
12976;SDS011;6553;48.412;9.514;2022-11-15T07:26:07;2.45;;;2.15;;
12976;SDS011;6553;48.412;9.514;2022-11-15T07:28:52;3.30;;;2.63;;
12976;SDS011;6553;48.412;9.514;2022-11-15T07:31:36;2.95;;;2.55;;
12976;SDS011;6553;48.412;9.514;2022-11-15T07:34:21;2.70;;;2.50;;
12976;SDS011;6553;48.412;9.514;2022-11-15T07:37:07;2.55;;;2.20;;
12976;SDS011;6553;48.412;9.514;2022-11-15T07:39:51;2.47;;;2.28;;
12976;SDS011;6553;48.412;9.514;2022-11-15T07:42:35;3.10;;;2.55;;
12976;SDS011;6553;48.412;9.514;2022-11-15T07:45:44;3.17;;;2.60;;
12976;SDS011;6553;48.412;9.514;2022-11-15T07:48:29;2.95;;;2.75;;
12976;SDS011;6553;48.412;9.514;2022-11-15T07:51:15;3.67;;;3.00;;
12976;SDS011;6553;48.412;9.514;2022-11-15T07:54:00;2.72;;;2.20;;
12976;SDS011;6553;48.412;9.514;2022-11-15T07:56:44;3.65;;;3.00;;
12976;SDS011;6553;48.412;9.514;2022-11-15T07:59:29;2.95;;;2.75;;
12976;SDS011;6553;48.412;9.514;2022-11-15T08:02:13;3.13;;;2.85;;
12976;SDS011;6553;48.412;9.514;2022-11-15T08:05:00;4.40;;;3.20;;
12976;SDS011;6553;48.412;9.514;2022-11-15T08:07:44;3.53;;;2.83;;
12976;SDS011;6553;48.412;9.514;2022-11-15T08:10:28;3.08;;;2.78;;
12976;SDS011;6553;48.412;9.514;2022-11-15T08:13:13;3.22;;;2.60;;
12976;SDS011;6553;48.412;9.514;2022-11-15T08:15:58;2.85;;;2.63;;
12976;SDS011;6553;48.412;9.514;2022-11-15T08:18:44;3.90;;;2.75;;
12976;SDS011;6553;48.412;9.514;2022-11-15T08:21:28;3.40;;;3.05;;
12976;SDS011;6553;48.412;9.514;2022-11-15T08:24:13;3.20;;;2.90;;
12976;SDS011;6553;48.412;9.514;2022-11-15T08:26:58;3.63;;;2.97;;
12976;SDS011;6553;48.412;9.514;2022-11-15T08:29:42;4.00;;;3.60;;
12976;SDS011;6553;48.412;9.514;2022-11-15T08:32:27;5.00;;;3.53;;
12976;SDS011;6553;48.412;9.514;2022-11-15T08:35:13;4.10;;;3.40;;
12976;SDS011;6553;48.412;9.514;2022-11-15T08:37:58;3.58;;;3.15;;
12976;SDS011;6553;48.412;9.514;2022-11-15T08:40:42;4.53;;;3.35;;
12976;SDS011;6553;48.412;9.514;2022-11-15T08:43:26;3.72;;;3.20;;
12976;SDS011;6553;48.412;9.514;2022-11-15T08:46:11;4.60;;;3.83;;
12976;SDS011;6553;48.412;9.514;2022-11-15T08:48:57;4.03;;;3.40;;
12976;SDS011;6553;48.412;9.514;2022-11-15T08:51:41;3.42;;;3.13;;
12976;SDS011;6553;48.412;9.514;2022-11-15T08:54:26;4.35;;;3.67;;
12976;SDS011;6553;48.412;9.514;2022-11-15T08:57:11;3.53;;;3.22;;
12976;SDS011;6553;48.412;9.514;2022-11-15T08:59:55;4.05;;;3.63;;
12976;SDS011;6553;48.412;9.514;2022-11-15T09:02:40;4.13;;;3.53;;
12976;SDS011;6553;48.412;9.514;2022-11-15T09:05:25;4.45;;;3.45;;
12976;SDS011;6553;48.412;9.514;2022-11-15T09:08:09;3.97;;;3.58;;
12976;SDS011;6553;48.412;9.514;2022-11-15T09:10:56;4.32;;;3.58;;
12976;SDS011;6553;48.412;9.514;2022-11-15T09:13:41;4.00;;;3.58;;
12976;SDS011;6553;48.412;9.514;2022-11-15T09:16:26;4.07;;;3.67;;
12976;SDS011;6553;48.412;9.514;2022-11-15T09:19:10;4.22;;;3.83;;
12976;SDS011;6553;48.412;9.514;2022-11-15T09:21:54;5.30;;;3.63;;
12976;SDS011;6553;48.412;9.514;2022-11-15T09:24:39;3.97;;;3.63;;
12976;SDS011;6553;48.412;9.514;2022-11-15T09:27:27;3.90;;;3.60;;
12976;SDS011;6553;48.412;9.514;2022-11-15T09:30:13;4.47;;;4.07;;
12976;SDS011;6553;48.412;9.514;2022-11-15T09:32:57;4.60;;;4.00;;
12976;SDS011;6553;48.412;9.514;2022-11-15T09:35:41;4.47;;;3.92;;
12976;SDS011;6553;48.412;9.514;2022-11-15T09:38:25;4.75;;;3.83;;
12976;SDS011;6553;48.412;9.514;2022-11-15T09:50:50;4.40;;;3.83;;
12976;SDS011;6553;48.412;9.514;2022-11-15T09:53:29;4.13;;;3.72;;
12976;SDS011;6553;48.412;9.514;2022-11-15T09:56:13;3.75;;;3.45;;
12976;SDS011;6553;48.412;9.514;2022-11-15T10:02:14;4.10;;;3.45;;
12976;SDS011;6553;48.412;9.514;2022-11-15T10:05:20;3.60;;;3.30;;
12976;SDS011;6553;48.412;9.514;2022-11-15T10:08:12;3.83;;;3.50;;
12976;SDS011;6553;48.412;9.514;2022-11-15T10:11:00;3.75;;;3.15;;
12976;SDS011;6553;48.412;9.514;2022-11-15T10:13:32;3.97;;;3.35;;
12976;SDS011;6553;48.412;9.514;2022-11-15T10:17:05;4.63;;;3.58;;
12976;SDS011;6553;48.412;9.514;2022-11-15T10:20:06;3.42;;;3.13;;
12976;SDS011;6553;48.412;9.514;2022-11-15T10:27:59;3.92;;;3.50;;
12976;SDS011;6553;48.412;9.514;2022-11-15T10:30:39;3.38;;;2.95;;
12976;SDS011;6553;48.412;9.514;2022-11-15T10:41:14;3.50;;;3.20;;
12976;SDS011;6553;48.412;9.514;2022-11-15T10:46:46;3.53;;;3.22;;
12976;SDS011;6553;48.412;9.514;2022-11-15T10:49:31;3.28;;;2.97;;
12976;SDS011;6553;48.412;9.514;2022-11-15T10:54:43;3.67;;;2.80;;
12976;SDS011;6553;48.412;9.514;2022-11-15T10:57:37;3.30;;;3.00;;
12976;SDS011;6553;48.412;9.514;2022-11-15T11:02:57;3.88;;;3.05;;
12976;SDS011;6553;48.412;9.514;2022-11-15T11:05:36;3.17;;;2.88;;
12976;SDS011;6553;48.412;9.514;2022-11-15T11:10:36;3.53;;;3.20;;
12976;SDS011;6553;48.412;9.514;2022-11-15T11:13:12;2.90;;;2.67;;
12976;SDS011;6553;48.412;9.514;2022-11-15T11:15:46;3.72;;;3.28;;
12976;SDS011;6553;48.412;9.514;2022-11-15T11:18:26;3.30;;;2.80;;
12976;SDS011;6553;48.412;9.514;2022-11-15T11:21:03;2.85;;;2.55;;
12976;SDS011;6553;48.412;9.514;2022-11-15T11:26:57;2.83;;;2.58;;
12976;SDS011;6553;48.412;9.514;2022-11-15T11:32:50;3.08;;;2.88;;
12976;SDS011;6553;48.412;9.514;2022-11-15T11:36:03;2.70;;;2.50;;
12976;SDS011;6553;48.412;9.514;2022-11-15T11:44:18;3.53;;;2.60;;
12976;SDS011;6553;48.412;9.514;2022-11-15T11:47:03;2.72;;;2.50;;
12976;SDS011;6553;48.412;9.514;2022-11-15T11:49:59;2.85;;;2.28;;
12976;SDS011;6553;48.412;9.514;2022-11-15T11:52:38;2.70;;;2.50;;
12976;SDS011;6553;48.412;9.514;2022-11-15T11:55:22;2.47;;;2.20;;
12976;SDS011;6553;48.412;9.514;2022-11-15T12:06:51;2.63;;;2.40;;
12976;SDS011;6553;48.412;9.514;2022-11-15T12:15:09;2.70;;;2.50;;
12976;SDS011;6553;48.412;9.514;2022-11-15T12:17:42;2.50;;;2.30;;
12976;SDS011;6553;48.412;9.514;2022-11-15T12:20:17;2.47;;;2.28;;
12976;SDS011;6553;48.412;9.514;2022-11-15T12:22:55;2.63;;;2.15;;
12976;SDS011;6553;48.412;9.514;2022-11-15T12:25:30;2.28;;;2.08;;
12976;SDS011;6553;48.412;9.514;2022-11-15T12:28:20;2.40;;;2.20;;
12976;SDS011;6553;48.412;9.514;2022-11-15T12:34:15;2.33;;;1.75;;
12976;SDS011;6553;48.412;9.514;2022-11-15T12:36:48;2.53;;;2.05;;
12976;SDS011;6553;48.412;9.514;2022-11-15T12:39:16;3.08;;;2.20;;
12976;SDS011;6553;48.412;9.514;2022-11-15T12:41:43;2.50;;;2.22;;
12976;SDS011;6553;48.412;9.514;2022-11-15T12:47:04;2.42;;;1.90;;
12976;SDS011;6553;48.412;9.514;2022-11-15T12:49:49;2.58;;;2.10;;
12976;SDS011;6553;48.412;9.514;2022-11-15T12:52:16;2.50;;;2.00;;
12976;SDS011;6553;48.412;9.514;2022-11-15T12:59:54;2.00;;;1.80;;
12976;SDS011;6553;48.412;9.514;2022-11-15T13:17:52;1.73;;;1.60;;
12976;SDS011;6553;48.412;9.514;2022-11-15T13:20:26;2.72;;;2.20;;
12976;SDS011;6553;48.412;9.514;2022-11-15T13:23:02;1.95;;;1.77;;
12976;SDS011;6553;48.412;9.514;2022-11-15T13:28:39;2.00;;;1.90;;
12976;SDS011;6553;48.412;9.514;2022-11-15T13:31:16;2.92;;;1.80;;
12976;SDS011;6553;48.412;9.514;2022-11-15T13:33:53;2.10;;;1.75;;
12976;SDS011;6553;48.412;9.514;2022-11-15T13:36:29;1.80;;;1.70;;
12976;SDS011;6553;48.412;9.514;2022-11-15T13:41:29;2.33;;;2.00;;
12976;SDS011;6553;48.412;9.514;2022-11-15T13:43:58;2.10;;;1.90;;
12976;SDS011;6553;48.412;9.514;2022-11-15T13:46:27;1.98;;;1.77;;
12976;SDS011;6553;48.412;9.514;2022-11-15T13:49:02;2.25;;;1.83;;
12976;SDS011;6553;48.412;9.514;2022-11-15T13:56:47;2.08;;;1.60;;
12976;SDS011;6553;48.412;9.514;2022-11-15T13:59:25;4.20;;;1.77;;
12976;SDS011;6553;48.412;9.514;2022-11-15T14:01:54;2.47;;;1.90;;
12976;SDS011;6553;48.412;9.514;2022-11-15T14:04:24;2.58;;;1.70;;
12976;SDS011;6553;48.412;9.514;2022-11-15T14:06:58;2.67;;;1.80;;
12976;SDS011;6553;48.412;9.514;2022-11-15T14:09:29;2.88;;;1.80;;
12976;SDS011;6553;48.412;9.514;2022-11-15T14:18:05;2.70;;;1.73;;
12976;SDS011;6553;48.412;9.514;2022-11-15T14:20:37;2.25;;;1.92;;
12976;SDS011;6553;48.412;9.514;2022-11-15T14:23:26;2.20;;;2.00;;
12976;SDS011;6553;48.412;9.514;2022-11-15T14:25:56;2.50;;;2.13;;
12976;SDS011;6553;48.412;9.514;2022-11-15T14:30:50;2.22;;;2.03;;
12976;SDS011;6553;48.412;9.514;2022-11-15T14:38:39;2.67;;;2.40;;
12976;SDS011;6553;48.412;9.514;2022-11-15T14:41:05;2.58;;;2.10;;
12976;SDS011;6553;48.412;9.514;2022-11-15T14:43:41;2.60;;;2.22;;
12976;SDS011;6553;48.412;9.514;2022-11-15T14:46:07;3.35;;;2.83;;
12976;SDS011;6553;48.412;9.514;2022-11-15T14:48:33;3.00;;;2.28;;
12976;SDS011;6553;48.412;9.514;2022-11-15T14:50:59;3.25;;;2.70;;
12976;SDS011;6553;48.412;9.514;2022-11-15T14:53:25;2.92;;;2.40;;
12976;SDS011;6553;48.412;9.514;2022-11-15T14:55:51;2.50;;;2.30;;
12976;SDS011;6553;48.412;9.514;2022-11-15T14:58:16;3.10;;;2.80;;
12976;SDS011;6553;48.412;9.514;2022-11-15T15:00:42;2.50;;;2.30;;
12976;SDS011;6553;48.412;9.514;2022-11-15T15:03:08;3.70;;;2.67;;
12976;SDS011;6553;48.412;9.514;2022-11-15T15:05:39;2.70;;;2.30;;
12976;SDS011;6553;48.412;9.514;2022-11-15T15:08:08;2.45;;;2.22;;
12976;SDS011;6553;48.412;9.514;2022-11-15T15:10:39;3.00;;;2.70;;
12976;SDS011;6553;48.412;9.514;2022-11-15T15:13:15;3.47;;;3.05;;
12976;SDS011;6553;48.412;9.514;2022-11-15T15:15:49;3.95;;;2.85;;
12976;SDS011;6553;48.412;9.514;2022-11-15T15:18:17;4.78;;;2.80;;
12976;SDS011;6553;48.412;9.514;2022-11-15T15:20:44;3.75;;;3.00;;
12976;SDS011;6553;48.412;9.514;2022-11-15T15:23:22;4.00;;;3.58;;
12976;SDS011;6553;48.412;9.514;2022-11-15T15:25:50;4.00;;;3.10;;
12976;SDS011;6553;48.412;9.514;2022-11-15T15:28:17;4.35;;;3.22;;
12976;SDS011;6553;48.412;9.514;2022-11-15T15:30:43;4.18;;;3.40;;
12976;SDS011;6553;48.412;9.514;2022-11-15T15:33:09;3.53;;;3.20;;
12976;SDS011;6553;48.412;9.514;2022-11-15T15:35:34;3.25;;;2.95;;
12976;SDS011;6553;48.412;9.514;2022-11-15T15:38:00;6.68;;;3.50;;
12976;SDS011;6553;48.412;9.514;2022-11-15T15:40:28;4.40;;;3.05;;
12976;SDS011;6553;48.412;9.514;2022-11-15T15:42:56;4.20;;;2.83;;
12976;SDS011;6553;48.412;9.514;2022-11-15T15:45:24;5.07;;;3.20;;
12976;SDS011;6553;48.412;9.514;2022-11-15T15:47:52;3.88;;;3.28;;
12976;SDS011;6553;48.412;9.514;2022-11-15T15:50:25;4.03;;;3.13;;
12976;SDS011;6553;48.412;9.514;2022-11-15T15:52:56;4.05;;;2.97;;
12976;SDS011;6553;48.412;9.514;2022-11-15T15:55:24;4.00;;;3.10;;
12976;SDS011;6553;48.412;9.514;2022-11-15T15:57:51;3.40;;;2.70;;
12976;SDS011;6553;48.412;9.514;2022-11-15T16:00:17;6.55;;;3.45;;
12976;SDS011;6553;48.412;9.514;2022-11-15T16:02:44;3.88;;;3.10;;
12976;SDS011;6553;48.412;9.514;2022-11-15T16:05:11;4.88;;;3.20;;
12976;SDS011;6553;48.412;9.514;2022-11-15T16:07:37;4.68;;;3.20;;
12976;SDS011;6553;48.412;9.514;2022-11-15T16:10:26;4.82;;;3.38;;
12976;SDS011;6553;48.412;9.514;2022-11-15T16:12:53;4.45;;;3.15;;
12976;SDS011;6553;48.412;9.514;2022-11-15T16:15:21;5.65;;;3.28;;
12976;SDS011;6553;48.412;9.514;2022-11-15T16:17:51;3.78;;;3.28;;
12976;SDS011;6553;48.412;9.514;2022-11-15T16:22:55;3.38;;;2.95;;
12976;SDS011;6553;48.412;9.514;2022-11-15T16:25:21;4.47;;;3.47;;
12976;SDS011;6553;48.412;9.514;2022-11-15T16:27:47;3.67;;;2.70;;
12976;SDS011;6553;48.412;9.514;2022-11-15T16:30:17;4.60;;;2.90;;
12976;SDS011;6553;48.412;9.514;2022-11-15T16:32:46;6.32;;;3.17;;
12976;SDS011;6553;48.412;9.514;2022-11-15T16:35:12;5.47;;;3.10;;
12976;SDS011;6553;48.412;9.514;2022-11-15T16:37:40;4.07;;;3.42;;
12976;SDS011;6553;48.412;9.514;2022-11-15T16:40:15;4.68;;;3.38;;
12976;SDS011;6553;48.412;9.514;2022-11-15T16:42:55;4.63;;;3.67;;
12976;SDS011;6553;48.412;9.514;2022-11-15T16:45:22;4.03;;;3.47;;
12976;SDS011;6553;48.412;9.514;2022-11-15T16:47:48;6.88;;;3.70;;
12976;SDS011;6553;48.412;9.514;2022-11-15T16:50:25;4.43;;;3.40;;
12976;SDS011;6553;48.412;9.514;2022-11-15T16:52:54;5.03;;;3.20;;
12976;SDS011;6553;48.412;9.514;2022-11-15T16:55:22;4.07;;;3.05;;
12976;SDS011;6553;48.412;9.514;2022-11-15T16:57:51;4.97;;;3.25;;
12976;SDS011;6553;48.412;9.514;2022-11-15T17:00:18;4.15;;;3.15;;
12976;SDS011;6553;48.412;9.514;2022-11-15T17:02:46;4.13;;;3.33;;
12976;SDS011;6553;48.412;9.514;2022-11-15T17:05:15;5.43;;;3.25;;
12976;SDS011;6553;48.412;9.514;2022-11-15T17:07:47;4.53;;;3.20;;
12976;SDS011;6553;48.412;9.514;2022-11-15T17:10:18;4.47;;;3.10;;
12976;SDS011;6553;48.412;9.514;2022-11-15T17:12:49;5.25;;;3.30;;
12976;SDS011;6553;48.412;9.514;2022-11-15T17:15:15;4.95;;;3.97;;
12976;SDS011;6553;48.412;9.514;2022-11-15T17:17:42;5.30;;;3.55;;
12976;SDS011;6553;48.412;9.514;2022-11-15T17:20:15;4.68;;;3.90;;
12976;SDS011;6553;48.412;9.514;2022-11-15T17:22:43;5.57;;;3.83;;
12976;SDS011;6553;48.412;9.514;2022-11-15T17:25:09;5.68;;;3.83;;
12976;SDS011;6553;48.412;9.514;2022-11-15T17:27:35;4.80;;;3.20;;
12976;SDS011;6553;48.412;9.514;2022-11-15T17:30:01;4.50;;;3.85;;
12976;SDS011;6553;48.412;9.514;2022-11-15T17:32:26;7.82;;;4.07;;
12976;SDS011;6553;48.412;9.514;2022-11-15T17:34:52;4.60;;;3.85;;
12976;SDS011;6553;48.412;9.514;2022-11-15T17:37:18;4.63;;;3.83;;
12976;SDS011;6553;48.412;9.514;2022-11-15T17:39:44;7.93;;;4.03;;
12976;SDS011;6553;48.412;9.514;2022-11-15T17:42:09;6.82;;;4.25;;
12976;SDS011;6553;48.412;9.514;2022-11-15T17:44:35;5.85;;;3.90;;
12976;SDS011;6553;48.412;9.514;2022-11-15T17:47:01;6.32;;;3.75;;
12976;SDS011;6553;48.412;9.514;2022-11-15T17:49:26;5.30;;;3.70;;
12976;SDS011;6553;48.412;9.514;2022-11-15T17:51:52;5.88;;;4.20;;
12976;SDS011;6553;48.412;9.514;2022-11-15T17:54:18;4.28;;;3.47;;
12976;SDS011;6553;48.412;9.514;2022-11-15T17:56:44;4.20;;;3.22;;
12976;SDS011;6553;48.412;9.514;2022-11-15T17:59:10;5.57;;;3.50;;
12976;SDS011;6553;48.412;9.514;2022-11-15T18:01:36;5.75;;;3.53;;
12976;SDS011;6553;48.412;9.514;2022-11-15T18:04:04;5.80;;;3.80;;
12976;SDS011;6553;48.412;9.514;2022-11-15T18:06:33;5.22;;;3.85;;
12976;SDS011;6553;48.412;9.514;2022-11-15T18:09:00;5.10;;;3.67;;
12976;SDS011;6553;48.412;9.514;2022-11-15T18:11:30;6.68;;;3.70;;
12976;SDS011;6553;48.412;9.514;2022-11-15T18:14:06;4.93;;;3.95;;
12976;SDS011;6553;48.412;9.514;2022-11-15T18:16:37;6.20;;;3.72;;
12976;SDS011;6553;48.412;9.514;2022-11-15T18:19:04;6.47;;;4.00;;
12976;SDS011;6553;48.412;9.514;2022-11-15T18:21:35;3.97;;;3.50;;
12976;SDS011;6553;48.412;9.514;2022-11-15T18:24:20;7.18;;;3.97;;
12976;SDS011;6553;48.412;9.514;2022-11-15T18:26:59;5.55;;;4.50;;
12976;SDS011;6553;48.412;9.514;2022-11-15T18:29:27;5.22;;;4.32;;
12976;SDS011;6553;48.412;9.514;2022-11-15T18:31:53;5.93;;;3.92;;
12976;SDS011;6553;48.412;9.514;2022-11-15T18:34:23;5.07;;;3.40;;
12976;SDS011;6553;48.412;9.514;2022-11-15T18:36:52;4.65;;;3.55;;
12976;SDS011;6553;48.412;9.514;2022-11-15T18:39:18;4.47;;;3.80;;
12976;SDS011;6553;48.412;9.514;2022-11-15T18:41:44;5.97;;;4.15;;
12976;SDS011;6553;48.412;9.514;2022-11-15T18:44:10;5.80;;;3.45;;
12976;SDS011;6553;48.412;9.514;2022-11-15T18:46:37;5.68;;;3.22;;